Time;durP1;ratioP1;P1;durP2;ratioP2;P2;SDS_P1;SDS_P2;PMS_P1;PMS_P2;Temp;Humidity;BMP_temperature;BMP_pressure;BME280_temperature;BME280_humidity;BME280_pressure;Samples;Min_cycle;Max_cycle;Signal;HPM_P1;HPM_P2
2023/09/07 06:51:53;;;;;;;7.93;4.50;;;;;;;19.93;69.29;96927.75;2084265;27;20569;-73
2023/09/07 06:54:04;;;;;;;11.27;5.25;;;;;;;20.00;68.09;96926.31;2081015;28;21449;-73
2023/09/07 06:55:06;;;;;;;10.40;4.60;;;;;;;20.32;67.80;96927.38;2079088;28;20636;-73
2023/09/07 06:56:08;;;;;;;14.05;5.57;;;;;;;20.65;67.20;96928.28;2079804;28;20196;-73
2023/09/07 06:57:10;;;;;;;9.32;5.03;;;;;;;20.48;67.33;96933.13;2083551;28;20599;-74
2023/09/07 06:58:11;;;;;;;6.25;4.45;;;;;;;20.45;68.02;96932.53;2084480;28;20208;-73
2023/09/07 06:59:13;;;;;;;20.85;5.43;;;;;;;20.93;66.99;96934.03;2078420;28;20220;-73
2023/09/07 07:00:15;;;;;;;9.32;5.32;;;;;;;20.71;66.30;96928.66;2081759;28;20231;-73
2023/09/07 07:01:16;;;;;;;13.85;5.03;;;;;;;20.64;67.21;96927.41;2083126;28;20271;-73
2023/09/07 07:02:18;;;;;;;12.07;5.53;;;;;;;21.11;65.17;96936.97;2082619;28;20235;-74
2023/09/07 07:03:19;;;;;;;14.68;5.30;;;;;;;21.27;65.28;96937.38;2082840;28;20806;-73
2023/09/07 07:04:21;;;;;;;7.38;4.28;;;;;;;21.33;65.83;96933.34;2078422;28;20274;-73
2023/09/07 07:05:23;;;;;;;14.45;5.07;;;;;;;21.56;63.92;96936.75;2080514;28;20208;-74
2023/09/07 07:06:24;;;;;;;15.80;5.15;;;;;;;21.31;64.97;96941.44;2080379;28;20197;-73
2023/09/07 07:07:26;;;;;;;8.57;4.13;;;;;;;21.41;64.32;96938.88;2080132;28;20197;-74
2023/09/07 07:08:27;;;;;;;8.45;5.03;;;;;;;21.72;64.38;96935.44;2080080;28;20201;-73
2023/09/07 07:09:30;;;;;;;11.52;5.20;;;;;;;21.77;63.47;96934.06;2081814;28;20200;-74
2023/09/07 07:10:32;;;;;;;14.13;4.25;;;;;;;21.99;63.40;96934.88;2083815;28;20230;-74
2023/09/07 07:11:33;;;;;;;8.48;4.65;;;;;;;21.94;63.51;96943.28;2080959;28;20200;-73
2023/09/07 07:12:35;;;;;;;11.57;4.75;;;;;;;22.20;62.09;96941.97;2083023;28;20291;-74
2023/09/07 07:13:36;;;;;;;12.23;4.78;;;;;;;22.25;62.83;96937.09;2083384;28;20219;-73
2023/09/07 07:14:38;;;;;;;14.32;4.00;;;;;;;22.64;62.37;96942.56;2084303;28;20303;-74
2023/09/07 07:15:41;;;;;;;8.60;4.97;;;;;;;23.22;60.63;96943.63;2083770;28;20205;-74
2023/09/07 07:16:43;;;;;;;7.50;4.60;;;;;;;23.08;60.70;96942.19;2083283;28;20204;-73
2023/09/07 07:17:44;;;;;;;6.80;4.35;;;;;;;22.60;61.37;96947.31;2079008;28;20193;-73
2023/09/07 07:18:46;;;;;;;11.02;4.40;;;;;;;22.70;61.80;96944.66;2081218;28;20229;-73
2023/09/07 07:19:47;;;;;;;9.43;4.38;;;;;;;22.43;62.83;96942.63;2082074;28;20201;-73
2023/09/07 07:20:50;;;;;;;9.45;4.15;;;;;;;22.76;61.54;96943.28;2082517;28;20200;-73
2023/09/07 07:21:52;;;;;;;12.00;4.45;;;;;;;22.72;61.70;96952.53;2082110;28;20201;-73
2023/09/07 07:22:53;;;;;;;12.10;4.50;;;;;;;21.92;63.67;96949.69;2082289;28;20283;-73
2023/09/07 07:23:55;;;;;;;9.68;4.95;;;;;;;22.37;63.57;96949.34;2081518;28;20557;-73
2023/09/07 07:24:57;;;;;;;11.85;4.10;;;;;;;22.15;63.13;96953.00;2082231;28;20193;-73
2023/09/07 07:25:58;;;;;;;8.98;4.50;;;;;;;22.40;62.80;96946.41;2084003;28;20385;-73
2023/09/07 07:26:59;;;;;;;7.07;4.47;;;;;;;23.35;60.72;96957.50;2080837;28;20251;-73
2023/09/07 07:28:05;;;;;;;8.82;4.68;;;;;;;23.48;60.15;96946.56;2081222;28;20209;-73
2023/09/07 07:29:06;;;;;;;15.50;4.60;;;;;;;23.00;60.52;96943.72;2079138;28;20228;-73
2023/09/07 07:30:09;;;;;;;14.73;4.50;;;;;;;22.42;61.92;96941.78;2079061;28;20811;-73
2023/09/07 07:31:10;;;;;;;11.63;5.03;;;;;;;23.05;61.20;96940.63;2078771;28;20228;-73
2023/09/07 07:32:12;;;;;;;18.63;4.47;;;;;;;23.26;60.83;96939.69;2079498;28;20227;-73
2023/09/07 07:33:13;;;;;;;8.75;4.28;;;;;;;23.09;61.24;96936.72;2081454;28;20193;-73
2023/09/07 07:34:15;;;;;;;20.85;4.70;;;;;;;23.39;59.69;96940.25;2082053;28;20225;-73
2023/09/07 07:35:17;;;;;;;7.75;3.90;;;;;;;23.43;60.26;96946.13;2081257;28;20200;-73
2023/09/07 07:36:18;;;;;;;11.60;5.00;;;;;;;23.75;59.68;96945.78;2081719;28;20288;-73
2023/09/07 07:37:20;;;;;;;12.35;5.28;;;;;;;22.97;61.12;96938.69;2081938;28;20283;-73
2023/09/07 07:38:21;;;;;;;13.45;5.25;;;;;;;22.80;61.26;96934.88;2082720;28;20208;-72
2023/09/07 07:39:23;;;;;;;12.98;4.70;;;;;;;22.90;62.40;96937.53;2080641;28;20229;-73
2023/09/07 07:40:24;;;;;;;11.38;5.43;;;;;;;23.03;61.50;96939.09;2080452;28;20208;-73
2023/09/07 07:41:26;;;;;;;9.07;4.97;;;;;;;22.69;62.43;96940.34;2081987;28;20193;-73
2023/09/07 07:42:27;;;;;;;13.73;5.47;;;;;;;22.12;64.08;96934.69;2082458;28;20363;-73
2023/09/07 07:43:28;;;;;;;8.70;4.63;;;;;;;22.40;62.75;96933.13;2080729;28;20239;-72
2023/09/07 07:44:30;;;;;;;8.93;4.53;;;;;;;22.72;62.25;96926.75;2082571;28;20204;-73
2023/09/07 07:45:36;;;;;;;8.18;4.28;;;;;;;23.42;60.69;96936.47;2078885;28;20596;-73
2023/09/07 07:46:38;;;;;;;8.52;4.70;;;;;;;23.12;61.31;96919.59;2080648;28;20233;-75
2023/09/07 07:47:41;;;;;;;9.38;4.90;;;;;;;23.48;60.16;96933.22;2082115;28;20544;-75
2023/09/07 07:48:42;;;;;;;7.80;5.00;;;;;;;23.51;60.05;96932.09;2082020;28;20224;-74
2023/09/07 07:49:44;;;;;;;10.98;5.07;;;;;;;23.60;60.17;96934.75;2082918;28;20209;-74
2023/09/07 07:50:45;;;;;;;7.45;4.95;;;;;;;23.33;60.71;96927.50;2082915;28;20206;-75
2023/09/07 07:51:47;;;;;;;14.55;5.00;;;;;;;23.79;59.46;96930.34;2081132;28;20205;-75
2023/09/07 07:52:48;;;;;;;7.95;4.43;;;;;;;23.33;60.91;96932.81;2082020;28;20443;-75
2023/09/07 07:53:50;;;;;;;8.85;4.82;;;;;;;23.42;60.29;96929.28;2079994;28;20239;-75
2023/09/07 07:54:52;;;;;;;10.52;4.70;;;;;;;23.81;59.77;96923.06;2078667;28;20204;-75
2023/09/07 07:55:55;;;;;;;8.18;4.25;;;;;;;24.46;58.76;96925.75;2078861;28;20193;-75
2023/09/07 07:56:57;;;;;;;10.23;5.22;;;;;;;24.25;58.49;96928.69;2081660;28;20201;-75
2023/09/07 07:57:59;;;;;;;6.90;4.40;;;;;;;24.21;58.63;96929.09;2081696;28;20205;-75
2023/09/07 07:59:00;;;;;;;9.55;4.50;;;;;;;24.13;59.41;96927.19;2082240;28;20224;-75
2023/09/07 08:00:04;;;;;;;7.68;4.72;;;;;;;23.92;58.56;96924.72;2083729;28;20201;-75
2023/09/07 08:01:14;;;;;;;8.48;4.82;;;;;;;24.85;57.71;96935.38;2082224;28;20197;-75
2023/09/07 08:02:15;;;;;;;8.00;4.00;;;;;;;25.38;56.53;96928.38;2080596;28;20204;-75
2023/09/07 08:03:17;;;;;;;16.98;4.95;;;;;;;25.48;55.64;96928.28;2080006;28;20204;-75
2023/09/07 08:04:19;;;;;;;8.35;4.38;;;;;;;25.11;57.17;96921.25;2079224;28;20759;-75
2023/09/07 08:05:20;;;;;;;9.27;5.15;;;;;;;25.51;54.84;96922.63;2075388;28;20830;-75
2023/09/07 08:06:22;;;;;;;10.98;4.65;;;;;;;25.78;55.19;96926.16;2073158;28;20208;-73
2023/09/07 08:07:23;;;;;;;8.32;4.60;;;;;;;24.53;57.75;96934.00;2075664;28;20201;-73
2023/09/07 08:08:25;;;;;;;6.75;4.15;;;;;;;24.33;58.39;96929.75;2077788;28;20565;-72
2023/09/07 08:09:26;;;;;;;10.05;4.45;;;;;;;24.22;59.25;96920.94;2073192;28;20613;-74
2023/09/07 08:10:28;;;;;;;6.82;4.35;;;;;;;24.08;58.86;96918.78;2073460;28;20689;-75
2023/09/07 08:11:33;;;;;;;9.18;4.57;;;;;;;24.56;58.39;96923.03;2076799;28;20284;-75
2023/09/07 08:12:34;;;;;;;8.32;4.47;;;;;;;25.07;56.57;96927.91;2077320;28;20208;-75
2023/09/07 08:13:36;;;;;;;8.50;5.00;;;;;;;23.57;59.76;96924.38;2075466;28;20255;-74
2023/09/07 08:14:38;;;;;;;10.10;4.57;;;;;;;24.04;59.74;96923.56;2080022;28;20324;-75
2023/09/07 08:15:39;;;;;;;10.88;4.75;;;;;;;24.16;59.27;96918.03;2080557;28;20220;-75
2023/09/07 08:16:40;;;;;;;10.73;5.40;;;;;;;24.64;58.09;96929.44;2076967;28;20198;-75
2023/09/07 08:17:42;;;;;;;8.32;4.88;;;;;;;24.33;58.23;96922.59;2078264;28;20202;-72
2023/09/07 08:18:44;;;;;;;7.75;4.43;;;;;;;24.69;57.94;96927.22;2072483;28;20221;-73
2023/09/07 08:19:48;;;;;;;10.10;5.07;;;;;;;24.93;57.04;96932.78;2073022;28;20202;-73
2023/09/07 08:20:50;;;;;;;7.40;4.70;;;;;;;24.22;58.39;96926.28;2077456;28;20657;-72
2023/09/07 08:21:51;;;;;;;10.27;5.60;;;;;;;24.09;58.80;96925.81;2077222;28;20217;-73
2023/09/07 08:22:53;;;;;;;13.35;5.68;;;;;;;24.03;59.25;96927.22;2076143;28;20676;-73
2023/09/07 08:23:54;;;;;;;11.45;5.75;;;;;;;24.02;59.08;96932.69;2072329;28;20218;-72
2023/09/07 08:24:56;;;;;;;5.97;4.80;;;;;;;24.07;59.23;96933.94;2077095;28;20215;-73
2023/09/07 08:25:58;;;;;;;10.93;5.28;;;;;;;24.29;59.36;96924.72;2077296;28;20209;-73
2023/09/07 08:27:00;;;;;;;7.75;5.05;;;;;;;24.40;58.75;96933.50;2077658;28;20198;-73
2023/09/07 08:28:05;;;;;;;12.82;4.68;;;;;;;24.15;59.28;96924.34;2075057;28;20207;-73
2023/09/07 08:29:08;;;;;;;12.02;5.50;;;;;;;23.64;59.48;96930.81;2075520;28;20308;-72
2023/09/07 08:30:15;;;;;;;8.20;4.82;;;;;;;23.53;60.40;96904.31;2077980;28;20290;-73
2023/09/07 08:31:21;;;;;;;9.27;5.25;;;;;;;23.75;60.30;96923.63;2078968;28;20322;-73
2023/09/07 08:32:23;;;;;;;9.30;5.57;;;;;;;23.50;60.82;96925.91;2077738;28;20197;-73
2023/09/07 08:33:29;;;;;;;13.32;4.93;;;;;;;23.15;61.27;96920.22;2075723;28;20232;-73
2023/09/07 08:34:31;;;;;;;9.95;4.72;;;;;;;23.23;61.96;96926.66;2076694;28;20221;-73
2023/09/07 08:35:35;;;;;;;18.02;5.75;;;;;;;24.02;60.32;96924.69;2077068;28;20672;-73
2023/09/07 08:36:37;;;;;;;9.93;5.05;;;;;;;24.05;59.40;96930.59;2076708;28;20236;-73
2023/09/07 08:37:39;;;;;;;9.88;5.45;;;;;;;23.75;60.46;96923.63;2076547;28;20198;-73
2023/09/07 08:38:41;;;;;;;7.75;5.03;;;;;;;24.37;59.80;96917.81;2075380;28;20209;-73
2023/09/07 08:39:43;;;;;;;8.70;5.30;;;;;;;24.27;59.37;96926.69;2075897;28;20630;-73
2023/09/07 08:40:46;;;;;;;8.68;4.35;;;;;;;24.45;59.17;96924.09;2076027;28;20200;-73
2023/09/07 08:41:47;;;;;;;15.20;5.65;;;;;;;24.36;59.15;96926.78;2075977;28;20197;-73
2023/09/07 08:43:04;;;;;;;12.43;4.45;;;;;;;24.66;59.01;96927.50;2075951;28;20614;-73
2023/09/07 08:44:08;;;;;;;10.73;4.03;;;;;;;24.71;58.73;96936.75;2074813;28;20224;-73
2023/09/07 08:45:13;;;;;;;8.55;5.15;;;;;;;24.42;59.15;96928.88;2074770;28;20194;-73
2023/09/07 08:46:18;;;;;;;10.15;4.57;;;;;;;24.16;59.79;96926.03;2077101;28;20228;-73
2023/09/07 08:47:20;;;;;;;6.95;4.30;;;;;;;24.45;58.79;96934.75;2077059;28;20201;-73
2023/09/07 08:48:22;;;;;;;8.07;5.35;;;;;;;23.69;60.67;96929.53;2072685;28;20726;-73
2023/09/07 08:49:24;;;;;;;8.45;5.90;;;;;;;24.06;60.77;96931.41;2073840;28;20217;-73
2023/09/07 08:50:27;;;;;;;8.13;4.80;;;;;;;24.00;60.24;96937.31;2074345;28;20236;-72
2023/09/07 08:51:29;;;;;;;7.95;4.25;;;;;;;23.73;60.69;96930.91;2074926;28;20205;-73
2023/09/07 08:52:31;;;;;;;10.32;4.88;;;;;;;23.79;60.67;96923.22;2075508;28;20242;-72
2023/09/07 08:53:33;;;;;;;16.00;5.10;;;;;;;24.97;58.47;96929.81;2075322;28;20916;-73
2023/09/07 08:54:37;;;;;;;8.45;4.85;;;;;;;24.52;58.27;96927.00;2080007;28;20201;-72
2023/09/07 08:55:38;;;;;;;10.95;4.72;;;;;;;24.53;59.09;96930.50;2079648;28;20197;-72
2023/09/07 08:56:40;;;;;;;5.97;4.68;;;;;;;24.52;59.72;96929.66;2076816;28;20205;-72
2023/09/07 08:57:42;;;;;;;8.05;5.47;;;;;;;24.31;58.95;96929.91;2075771;28;20206;-72
2023/09/07 08:58:44;;;;;;;7.32;4.68;;;;;;;24.33;58.79;96925.28;2075224;28;20226;-72
2023/09/07 08:59:46;;;;;;;6.13;5.03;;;;;;;23.75;60.19;96928.97;2076154;28;20189;-72
2023/09/07 09:00:49;;;;;;;10.27;4.82;;;;;;;23.82;60.81;96930.06;2076931;28;20198;-72
2023/09/07 09:01:56;;;;;;;7.55;4.40;;;;;;;23.71;60.38;96930.25;2076680;28;20205;-72
2023/09/07 09:02:59;;;;;;;7.70;5.03;;;;;;;23.73;61.38;96928.25;2072523;28;20202;-72
2023/09/07 09:04:00;;;;;;;9.90;5.40;;;;;;;23.83;60.44;96934.41;2072341;28;20222;-72
2023/09/07 09:05:02;;;;;;;6.93;4.43;;;;;;;24.25;59.32;96926.00;2073874;28;20204;-72
2023/09/07 09:06:05;;;;;;;9.70;5.00;;;;;;;24.50;59.15;96933.47;2074009;28;20208;-72
2023/09/07 09:07:06;;;;;;;9.07;4.38;;;;;;;24.57;59.00;96930.06;2074043;28;20775;-73
2023/09/07 09:08:08;;;;;;;6.40;4.55;;;;;;;25.09;58.08;96933.97;2076984;28;20307;-72
2023/09/07 09:09:22;;;;;;;7.70;5.30;;;;;;;24.33;59.04;96929.75;2076374;28;20225;-72
2023/09/07 09:10:23;;;;;;;9.00;4.85;;;;;;;24.35;60.28;96935.78;2077351;28;20579;-72
2023/09/07 09:11:27;;;;;;;9.98;4.68;;;;;;;25.41;57.50;96929.91;2076934;28;20204;-72
2023/09/07 09:12:29;;;;;;;8.77;4.63;;;;;;;23.95;60.15;96929.78;2076846;28;20286;-72
2023/09/07 09:13:31;;;;;;;10.90;5.00;;;;;;;23.98;60.93;96933.97;2077439;28;20246;-72
2023/09/07 09:14:34;;;;;;;10.23;5.45;;;;;;;23.56;61.44;96935.19;2076995;28;20193;-72
2023/09/07 09:15:35;;;;;;;6.72;4.60;;;;;;;23.95;61.21;96932.44;2077066;28;20198;-73
2023/09/07 09:16:37;;;;;;;7.60;5.15;;;;;;;24.00;60.77;96937.31;2075112;28;20679;-72
2023/09/07 09:17:38;;;;;;;10.10;5.05;;;;;;;25.36;58.33;96933.03;2076236;28;20794;-72
2023/09/07 09:18:51;;;;;;;11.43;3.90;;;;;;;26.26;56.98;96923.09;2075124;28;20216;-72
2023/09/07 09:19:53;;;;;;;7.93;5.20;;;;;;;25.50;57.84;96928.16;2075244;28;20209;-72
2023/09/07 09:20:55;;;;;;;8.68;4.63;;;;;;;25.86;56.57;96925.38;2072729;28;20197;-72
2023/09/07 09:21:57;;;;;;;14.32;4.07;;;;;;;24.76;58.78;96931.78;2073514;28;20201;-72
2023/09/07 09:23:03;;;;;;;10.68;5.57;;;;;;;24.19;60.11;96921.25;2075618;28;20279;-72
2023/09/07 09:24:10;;;;;;;16.98;4.85;;;;;;;25.22;58.87;96933.56;2074806;28;20690;-72
2023/09/07 09:25:12;;;;;;;7.80;4.47;;;;;;;25.73;57.34;96928.47;2077074;28;20217;-72
2023/09/07 09:26:13;;;;;;;6.75;4.32;;;;;;;25.15;59.21;96925.31;2072452;28;20210;-72
2023/09/07 09:27:15;;;;;;;10.48;5.05;;;;;;;24.53;59.94;96926.00;2073091;28;20217;-72
2023/09/07 09:28:17;;;;;;;7.03;4.85;;;;;;;24.26;60.51;96924.16;2074684;28;20192;-72
2023/09/07 09:29:23;;;;;;;10.00;4.93;;;;;;;24.62;60.35;96927.78;2071908;28;20275;-72
2023/09/07 09:30:25;;;;;;;6.80;4.63;;;;;;;25.43;58.68;96927.91;2073307;28;20649;-72
2023/09/07 09:31:27;;;;;;;8.77;4.93;;;;;;;25.27;58.57;96928.59;2072395;28;20300;-73
2023/09/07 09:32:29;;;;;;;11.20;4.40;;;;;;;24.91;59.43;96926.78;2072785;28;20391;-73
2023/09/07 09:33:33;;;;;;;8.23;4.95;;;;;;;25.68;58.03;96918.22;2076167;28;20197;-73
2023/09/07 09:34:36;;;;;;;8.82;4.55;;;;;;;25.84;56.72;96922.00;2075150;28;20241;-73
2023/09/07 09:35:41;;;;;;;11.05;4.80;;;;;;;25.83;57.85;96921.16;2075905;28;20205;-73
2023/09/07 09:36:43;;;;;;;10.90;6.13;;;;;;;25.49;57.34;96923.78;2076565;28;20568;-72
2023/09/07 09:37:48;;;;;;;7.97;5.60;;;;;;;25.47;57.70;96913.25;2074692;28;20285;-73
2023/09/07 09:38:53;;;;;;;8.18;5.15;;;;;;;25.67;57.79;96918.38;2075569;28;20715;-73
2023/09/07 09:39:56;;;;;;;7.95;4.63;;;;;;;25.79;57.05;96910.94;2075942;28;20246;-73
2023/09/07 09:40:58;;;;;;;7.32;4.40;;;;;;;26.24;56.17;96912.53;2075787;28;20250;-73
2023/09/07 09:41:59;;;;;;;6.57;4.55;;;;;;;25.41;57.81;96911.19;2075092;28;20193;-72
2023/09/07 09:43:05;;;;;;;8.57;5.10;;;;;;;25.13;58.75;96918.44;2074304;28;20193;-74
2023/09/07 09:44:07;;;;;;;7.32;4.57;;;;;;;24.90;59.68;96911.72;2076077;28;20305;-73
2023/09/07 09:45:11;;;;;;;10.52;5.18;;;;;;;24.99;58.78;96917.13;2072398;28;20236;-73
2023/09/07 09:46:13;;;;;;;11.73;5.60;;;;;;;24.94;58.93;96915.78;2073429;28;20197;-73
2023/09/07 09:47:15;;;;;;;7.28;4.43;;;;;;;26.14;56.86;96907.31;2076081;28;20205;-73
2023/09/07 09:48:19;;;;;;;12.98;4.90;;;;;;;27.22;55.52;96911.13;2075375;28;20216;-73
2023/09/07 09:49:22;;;;;;;9.07;3.92;;;;;;;28.24;53.55;96907.16;2074972;28;20225;-73
2023/09/07 09:50:24;;;;;;;9.40;4.78;;;;;;;28.86;52.27;96914.41;2079007;28;20334;-73
2023/09/07 09:51:27;;;;;;;10.90;5.22;;;;;;;29.37;50.80;96910.38;2079720;28;20201;-73
2023/09/07 09:52:30;;;;;;;10.88;4.55;;;;;;;28.44;52.00;96904.88;2075394;28;20201;-73
2023/09/07 09:53:31;;;;;;;9.50;4.50;;;;;;;29.06;51.24;96909.41;2072953;28;20759;-73
2023/09/07 09:54:35;;;;;;;12.60;4.30;;;;;;;29.16;51.10;96909.19;2075492;28;20271;-73
2023/09/07 09:55:38;;;;;;;13.00;4.20;;;;;;;28.41;52.45;96908.75;2075528;28;20566;-73
2023/09/07 09:56:41;;;;;;;9.20;4.45;;;;;;;28.81;51.61;96911.41;2075754;28;20262;-73
2023/09/07 09:57:43;;;;;;;8.10;4.65;;;;;;;29.53;50.26;96914.78;2075538;28;20293;-73
2023/09/07 09:58:44;;;;;;;8.18;4.47;;;;;;;28.57;50.94;96909.69;2075594;28;20793;-73
2023/09/07 09:59:46;;;;;;;8.88;4.93;;;;;;;28.52;51.45;96908.38;2076155;28;20197;-74
2023/09/07 10:00:51;;;;;;;14.68;5.22;;;;;;;28.22;52.40;96912.69;2076083;28;20198;-73
2023/09/07 10:01:54;;;;;;;8.63;5.40;;;;;;;28.31;51.75;96911.63;2077051;28;20202;-72
2023/09/07 10:03:02;;;;;;;11.43;4.30;;;;;;;29.22;51.26;96915.69;2076198;28;20208;-73
2023/09/07 10:04:04;;;;;;;10.07;5.45;;;;;;;27.29;53.86;96912.13;2076067;28;20316;-73
2023/09/07 10:05:09;;;;;;;14.75;4.90;;;;;;;28.15;52.98;96912.56;2076710;28;20197;-73
2023/09/07 10:06:28;;;;;;;22.17;5.10;;;;;;;29.81;50.05;96907.78;2074781;28;20197;-73
2023/09/07 10:07:42;;;;;;;12.17;4.80;;;;;;;30.55;48.57;96908.84;2079513;28;20235;-73
2023/09/07 10:08:58;;;;;;;8.20;4.35;;;;;;;30.71;47.65;96904.25;2077067;28;20453;-72
2023/09/07 10:09:59;;;;;;;8.83;4.20;;;;;;;30.69;47.83;96911.69;2076234;28;20201;-73
2023/09/07 10:11:08;;;;;;;8.27;4.80;;;;;;;30.13;48.38;96915.72;2072359;28;20772;-73
2023/09/07 10:12:12;;;;;;;8.73;4.20;;;;;;;29.27;49.67;96911.44;2073687;28;20423;-73
2023/09/07 10:13:29;;;;;;;12.43;4.47;;;;;;;28.88;51.83;96908.88;2076554;28;20426;-73
2023/09/07 10:14:41;;;;;;;19.87;4.83;;;;;;;30.01;49.69;96907.28;2075824;28;20830;-73
2023/09/07 10:15:43;;;;;;;15.07;4.60;;;;;;;30.90;47.73;96911.69;2072050;28;20509;-73
2023/09/07 10:16:49;;;;;;;14.27;4.70;;;;;;;29.86;48.83;96904.53;2074050;28;20431;-73
2023/09/07 10:18:05;;;;;;;7.80;4.40;;;;;;;31.12;47.85;96908.22;2074359;28;20439;-73
2023/09/07 10:19:17;;;;;;;14.63;4.70;;;;;;;30.26;48.73;96910.50;2073266;28;21007;-73
2023/09/07 10:20:22;;;;;;;5.00;3.90;;;;;;;31.34;47.51;96906.34;2075190;28;21136;-73
2023/09/07 10:21:26;;;;;;;9.87;3.97;;;;;;;31.58;46.15;96910.50;2075582;28;21032;-73
2023/09/07 10:22:30;;;;;;;11.40;3.80;;;;;;;31.89;46.09;96909.31;2072148;28;20431;-73
2023/09/07 10:23:41;;;;;;;4.93;3.80;;;;;;;32.37;45.11;96912.09;2074835;28;20491;-73
2023/09/07 10:24:46;;;;;;;6.43;3.93;;;;;;;32.88;44.58;96907.31;2075446;28;20487;-73
2023/09/07 10:25:49;;;;;;;10.30;3.70;;;;;;;31.74;46.00;96896.75;2074656;28;20442;-73
2023/09/07 10:27:02;;;;;;;9.13;4.37;;;;;;;32.68;44.84;96907.22;2071906;28;20526;-74
2023/09/07 10:28:04;;;;;;;11.50;4.27;;;;;;;33.12;43.89;96914.03;2072160;28;20423;-74
2023/09/07 10:29:05;;;;;;;6.97;4.00;;;;;;;33.37;43.36;96905.34;2075123;28;20459;-74
2023/09/07 10:30:12;;;;;;;5.47;3.57;;;;;;;34.05;43.01;96898.03;2075502;28;20426;-74
2023/09/07 10:31:18;;;;;;;8.87;4.13;;;;;;;34.21;41.89;96905.69;2075276;28;20422;-74
2023/09/07 10:32:20;;;;;;;5.33;3.20;;;;;;;34.08;42.02;96889.47;2074057;28;20481;-74
2023/09/07 10:33:21;;;;;;;6.53;3.60;;;;;;;33.88;42.38;96898.47;2079289;28;20907;-74
2023/09/07 10:34:35;;;;;;;6.73;4.00;;;;;;;32.30;45.00;96891.47;2079348;28;20445;-74
2023/09/07 10:35:37;;;;;;;9.40;4.30;;;;;;;33.31;43.39;96901.59;2074652;28;20510;-74
2023/09/07 10:36:39;;;;;;;6.20;3.97;;;;;;;33.91;42.78;96892.63;2075288;28;20480;-74
2023/09/07 10:37:41;;;;;;;7.63;3.70;;;;;;;33.87;43.07;96885.97;2074710;28;20434;-74
2023/09/07 10:38:42;;;;;;;7.10;3.90;;;;;;;34.36;41.98;96893.78;2071574;28;20784;-74
2023/09/07 10:39:44;;;;;;;6.60;3.73;;;;;;;33.79;42.80;96894.28;2071989;28;20447;-74
2023/09/07 10:40:47;;;;;;;7.80;3.23;;;;;;;34.34;41.93;96889.41;2075774;28;20476;-73
2023/09/07 10:41:49;;;;;;;8.80;3.83;;;;;;;34.69;41.76;96890.09;2073786;28;20426;-73
2023/09/07 10:43:00;;;;;;;11.43;4.10;;;;;;;34.22;41.65;96891.09;2072094;28;20481;-73
2023/09/07 10:44:02;;;;;;;7.37;4.30;;;;;;;33.61;42.72;96892.22;2072412;28;20903;-74
2023/09/07 10:45:16;;;;;;;7.93;3.70;;;;;;;34.68;41.36;96881.13;2072254;28;20457;-73
2023/09/07 10:46:21;;;;;;;5.93;3.50;;;;;;;34.80;41.54;96886.69;2073301;28;20431;-73
2023/09/07 10:47:23;;;;;;;7.00;3.80;;;;;;;34.20;41.65;96890.47;2075556;28;20454;-73
2023/09/07 10:48:25;;;;;;;8.93;4.03;;;;;;;33.27;42.58;96875.97;2074999;28;20427;-73
2023/09/07 10:49:27;;;;;;;7.10;3.90;;;;;;;32.03;45.27;96881.34;2074742;28;20426;-73
2023/09/07 10:50:29;;;;;;;5.70;4.17;;;;;;;31.71;45.42;96882.81;2075250;28;20465;-73
2023/09/07 10:51:30;;;;;;;6.33;3.83;;;;;;;32.94;43.70;96889.44;2076304;28;20810;-73
2023/09/07 10:52:33;;;;;;;7.13;3.87;;;;;;;33.12;43.66;96867.22;2074476;28;20976;-73
2023/09/07 10:53:36;;;;;;;6.53;3.83;;;;;;;32.49;44.11;96885.31;2072504;28;20800;-73
2023/09/07 10:54:37;;;;;;;6.90;3.97;;;;;;;30.38;47.24;96888.50;2074378;28;20429;-73
2023/09/07 10:55:40;;;;;;;11.13;4.70;;;;;;;29.23;49.85;96887.78;2075863;28;20501;-72
2023/09/07 10:56:44;;;;;;;13.43;4.00;;;;;;;30.30;47.60;96884.06;2075808;28;20480;-73
2023/09/07 10:57:47;;;;;;;8.87;4.80;;;;;;;31.49;45.76;96877.44;2075444;28;20477;-73
2023/09/07 10:58:51;;;;;;;28.40;5.70;;;;;;;32.12;44.94;96875.78;2071515;28;20459;-73
2023/09/07 10:59:55;;;;;;;22.87;4.57;;;;;;;31.81;45.10;96868.94;2075267;28;20484;-73
2023/09/07 11:00:57;;;;;;;23.90;4.80;;;;;;;32.16;44.97;96882.44;2076060;28;20585;-73
2023/09/07 11:02:05;;;;;;;15.60;4.17;;;;;;;33.26;43.44;96871.59;2075547;28;20445;-73
2023/09/07 11:03:09;;;;;;;12.00;4.57;;;;;;;33.99;42.61;96876.16;2075526;28;20466;-73
2023/09/07 11:04:11;;;;;;;8.00;4.20;;;;;;;34.25;42.23;96877.13;2075070;28;20553;-73
2023/09/07 11:05:13;;;;;;;6.87;4.50;;;;;;;33.82;41.33;96870.34;2075396;28;20423;-73
2023/09/07 11:06:20;;;;;;;6.87;4.50;;;;;;;31.74;44.40;96871.63;2076620;28;20888;-73
2023/09/07 11:07:26;;;;;;;9.03;4.40;;;;;;;31.24;46.26;96871.63;2077254;28;20426;-73
2023/09/07 11:08:29;;;;;;;11.20;4.63;;;;;;;30.94;46.81;96874.41;2075229;28;20520;-72
2023/09/07 11:09:31;;;;;;;13.07;4.50;;;;;;;31.08;46.67;96861.94;2076235;28;20423;-73
2023/09/07 11:10:34;;;;;;;9.30;4.60;;;;;;;31.20;46.11;96870.38;2077448;28;20423;-73
2023/09/07 11:11:36;;;;;;;7.03;4.40;;;;;;;31.13;47.00;96869.47;2077027;28;20437;-73
2023/09/07 11:12:39;;;;;;;7.20;4.37;;;;;;;31.17;46.89;96868.03;2071982;28;20833;-72
2023/09/07 11:13:42;;;;;;;5.43;4.00;;;;;;;31.57;46.11;96871.06;2073259;28;20561;-72
2023/09/07 11:14:43;;;;;;;13.43;4.00;;;;;;;32.89;44.04;96865.72;2076479;28;20517;-72
2023/09/07 11:15:45;;;;;;;9.70;4.50;;;;;;;33.48;43.64;96871.41;2075809;28;20434;-73
2023/09/07 11:16:47;;;;;;;10.57;3.90;;;;;;;33.91;41.94;96864.72;2075614;28;20437;-73
2023/09/07 11:17:49;;;;;;;9.37;5.07;;;;;;;33.02;43.56;96871.13;2075513;28;20431;-73
2023/09/07 11:18:51;;;;;;;9.73;4.43;;;;;;;33.76;42.41;96864.94;2074743;28;20447;-73
2023/09/07 11:19:53;;;;;;;10.90;4.60;;;;;;;34.29;41.42;96862.09;2075273;28;20445;-73
2023/09/07 11:20:56;;;;;;;19.97;4.20;;;;;;;34.43;41.41;96872.91;2075486;28;20616;-73
2023/09/07 11:21:57;;;;;;;21.20;4.87;;;;;;;34.30;41.14;96869.19;2075073;28;20884;-73
2023/09/07 11:23:00;;;;;;;8.83;4.90;;;;;;;32.64;42.99;96866.25;2074213;28;20920;-73
2023/09/07 11:24:06;;;;;;;7.60;3.80;;;;;;;32.80;43.63;96866.94;2073559;28;21265;-73
2023/09/07 11:25:08;;;;;;;5.60;3.90;;;;;;;31.90;44.40;96870.47;2074598;28;20422;-73
2023/09/07 11:26:10;;;;;;;7.30;4.40;;;;;;;31.55;45.49;96865.88;2074922;28;20498;-73
2023/09/07 11:27:11;;;;;;;6.17;3.53;;;;;;;33.18;43.40;96869.09;2074154;28;20428;-73
2023/09/07 11:28:15;;;;;;;6.20;4.97;;;;;;;33.11;42.88;96865.56;2074314;28;20423;-73
2023/09/07 11:29:18;;;;;;;8.00;4.60;;;;;;;30.84;46.24;96858.56;2074181;28;20462;-73
2023/09/07 11:30:20;;;;;;;10.60;4.40;;;;;;;31.14;46.52;96863.88;2074809;28;20939;-73
2023/09/07 11:31:21;;;;;;;15.50;4.80;;;;;;;32.80;43.91;96867.78;2075267;28;20430;-73
2023/09/07 11:32:23;;;;;;;9.20;4.30;;;;;;;33.11;43.46;96862.84;2074829;28;20451;-73
2023/09/07 11:33:25;;;;;;;5.43;3.57;;;;;;;34.14;42.13;96864.22;2076059;28;20434;-73
2023/09/07 11:34:28;;;;;;;6.50;3.70;;;;;;;34.11;42.12;96859.25;2077462;28;20434;-73
2023/09/07 11:35:29;;;;;;;9.10;4.73;;;;;;;34.23;41.98;96870.25;2076791;28;20988;-73
2023/09/07 11:36:31;;;;;;;6.83;3.90;;;;;;;34.72;40.61;96863.38;2074476;28;20465;-73
2023/09/07 11:37:33;;;;;;;5.23;4.10;;;;;;;34.96;40.79;96867.22;2073460;28;20431;-74
2023/09/07 11:38:37;;;;;;;4.97;3.70;;;;;;;34.87;41.00;96863.13;2074719;28;20434;-73
2023/09/07 11:39:39;;;;;;;7.73;3.53;;;;;;;34.14;41.57;96872.38;2076031;28;20437;-73
2023/09/07 11:40:50;;;;;;;10.63;4.87;;;;;;;33.68;42.74;96863.28;2077453;28;20430;-73
2023/09/07 11:41:51;;;;;;;13.77;4.80;;;;;;;31.64;45.73;96863.84;2075729;28;20476;-73
2023/09/07 11:42:53;;;;;;;9.00;4.90;;;;;;;30.45;47.83;96859.78;2076867;28;20515;-73
2023/09/07 11:43:54;;;;;;;9.90;4.60;;;;;;;31.59;46.19;96868.97;2077110;28;21001;-73
2023/09/07 11:44:56;;;;;;;10.50;4.43;;;;;;;31.73;45.10;96864.53;2073369;28;20427;-73
2023/09/07 11:45:57;;;;;;;9.20;4.00;;;;;;;32.99;44.09;96863.47;2073266;28;21585;-73
2023/09/07 11:46:59;;;;;;;5.60;4.17;;;;;;;33.98;42.55;96860.09;2074844;28;20914;-73
2023/09/07 11:48:01;;;;;;;5.53;4.00;;;;;;;34.48;41.45;96864.97;2076800;28;20419;-73